Virginia Beach, Virginia
Current Conditions -  °F | °C
As of 4:56 AM on Tuesday 21 Oct 2014 (Local Time) from KNTU Reporting Station
Overcast Overcast  
Wind Chill: 61°   Ceiling: 15000
Heat Index: 61°   Visibility: 10mi
Dew Point: 55°   Wind: 6mph
Humidity: 81%   Direction: 210°SSW
Pressure: 29.89"   Gusts: NA
Location:  36.76°N, 76.06°W
Report Text: KNTU 210856Z 21005KT 10SM SCT050 BKN150 OVC240 16/13 A2989 RMK AO2 SLP125 T01610128 56018
Loading
Personal Weather Stations






























Interactive Weather Map
Tropical Storm Tracking
New forecast layout! Learn more

10-Day Weather Forecast

Advertisements
Track Severe Weather on mobile